sensor_id;sensor_type;location;lat;lon;timestamp;P1;durP1;ratioP1;P2;durP2;ratioP2
42488;SDS011;28118;52.388;9.452;2022-10-26T00:01:09;9.45;;;7.53;;
42488;SDS011;28118;52.388;9.452;2022-10-26T00:03:37;10.10;;;8.93;;
42488;SDS011;28118;52.388;9.452;2022-10-26T00:08:35;8.75;;;7.20;;
42488;SDS011;28118;52.388;9.452;2022-10-26T00:11:02;15.48;;;8.98;;
42488;SDS011;28118;52.388;9.452;2022-10-26T00:13:29;9.43;;;8.48;;
42488;SDS011;28118;52.388;9.452;2022-10-26T00:15:56;11.88;;;9.35;;
42488;SDS011;28118;52.388;9.452;2022-10-26T00:18:22;8.90;;;7.90;;
42488;SDS011;28118;52.388;9.452;2022-10-26T00:20:50;10.68;;;9.73;;
42488;SDS011;28118;52.388;9.452;2022-10-26T00:23:17;8.77;;;7.10;;
42488;SDS011;28118;52.388;9.452;2022-10-26T00:25:52;9.82;;;8.90;;
42488;SDS011;28118;52.388;9.452;2022-10-26T00:28:20;10.10;;;8.57;;
42488;SDS011;28118;52.388;9.452;2022-10-26T00:30:47;11.07;;;9.90;;
42488;SDS011;28118;52.388;9.452;2022-10-26T00:33:14;20.70;;;11.35;;
42488;SDS011;28118;52.388;9.452;2022-10-26T00:35:40;12.13;;;10.20;;
42488;SDS011;28118;52.388;9.452;2022-10-26T00:38:11;11.57;;;10.43;;
42488;SDS011;28118;52.388;9.452;2022-10-26T00:40:38;11.70;;;9.13;;
42488;SDS011;28118;52.388;9.452;2022-10-26T00:43:08;12.85;;;10.75;;
42488;SDS011;28118;52.388;9.452;2022-10-26T00:45:58;11.85;;;10.02;;
42488;SDS011;28118;52.388;9.452;2022-10-26T00:48:27;8.48;;;7.68;;
42488;SDS011;28118;52.388;9.452;2022-10-26T00:50:57;10.20;;;9.18;;
42488;SDS011;28118;52.388;9.452;2022-10-26T00:53:28;13.23;;;9.65;;
42488;SDS011;28118;52.388;9.452;2022-10-26T00:55:56;20.13;;;11.10;;
42488;SDS011;28118;52.388;9.452;2022-10-26T00:58:23;11.68;;;10.35;;
42488;SDS011;28118;52.388;9.452;2022-10-26T01:00:51;10.23;;;9.15;;
42488;SDS011;28118;52.388;9.452;2022-10-26T01:03:18;11.32;;;8.80;;
42488;SDS011;28118;52.388;9.452;2022-10-26T01:05:45;9.90;;;7.93;;
42488;SDS011;28118;52.388;9.452;2022-10-26T01:08:14;9.43;;;8.45;;
42488;SDS011;28118;52.388;9.452;2022-10-26T01:10:42;9.18;;;7.95;;
42488;SDS011;28118;52.388;9.452;2022-10-26T01:13:09;13.43;;;9.63;;
42488;SDS011;28118;52.388;9.452;2022-10-26T01:15:47;9.82;;;8.70;;
42488;SDS011;28118;52.388;9.452;2022-10-26T01:32:39;8.77;;;7.57;;
42488;SDS011;28118;52.388;9.452;2022-10-26T01:35:01;10.45;;;8.48;;
42488;SDS011;28118;52.388;9.452;2022-10-26T01:37:35;9.88;;;8.88;;
42488;SDS011;28118;52.388;9.452;2022-10-26T01:40:17;11.00;;;8.25;;
42488;SDS011;28118;52.388;9.452;2022-10-26T01:42:46;10.70;;;9.43;;
42488;SDS011;28118;52.388;9.452;2022-10-26T01:45:17;7.68;;;6.88;;
42488;SDS011;28118;52.388;9.452;2022-10-26T01:47:44;10.27;;;8.68;;
42488;SDS011;28118;52.388;9.452;2022-10-26T01:50:13;9.77;;;8.77;;
42488;SDS011;28118;52.388;9.452;2022-10-26T01:52:41;11.52;;;8.68;;
42488;SDS011;28118;52.388;9.452;2022-10-26T01:58:12;7.95;;;7.22;;
42488;SDS011;28118;52.388;9.452;2022-10-26T02:00:54;7.95;;;7.15;;
42488;SDS011;28118;52.388;9.452;2022-10-26T02:09:09;8.77;;;7.53;;
42488;SDS011;28118;52.388;9.452;2022-10-26T02:12:13;7.20;;;6.50;;
42488;SDS011;28118;52.388;9.452;2022-10-26T02:14:56;8.98;;;5.75;;
42488;SDS011;28118;52.388;9.452;2022-10-26T02:17:35;7.45;;;6.75;;
42488;SDS011;28118;52.388;9.452;2022-10-26T02:20:12;11.35;;;5.40;;
42488;SDS011;28118;52.388;9.452;2022-10-26T02:22:48;7.72;;;6.93;;
42488;SDS011;28118;52.388;9.452;2022-10-26T02:25:19;10.43;;;7.32;;
42488;SDS011;28118;52.388;9.452;2022-10-26T02:27:52;17.00;;;8.90;;
42488;SDS011;28118;52.388;9.452;2022-10-26T02:30:22;12.32;;;6.70;;
42488;SDS011;28118;52.388;9.452;2022-10-26T02:32:50;7.47;;;6.05;;
42488;SDS011;28118;52.388;9.452;2022-10-26T02:35:21;10.50;;;8.13;;
42488;SDS011;28118;52.388;9.452;2022-10-26T02:37:52;12.38;;;7.75;;
42488;SDS011;28118;52.388;9.452;2022-10-26T02:40:24;8.80;;;6.85;;
42488;SDS011;28118;52.388;9.452;2022-10-26T02:42:52;7.70;;;6.47;;
42488;SDS011;28118;52.388;9.452;2022-10-26T02:45:23;6.68;;;6.03;;
42488;SDS011;28118;52.388;9.452;2022-10-26T02:47:53;12.50;;;6.97;;
42488;SDS011;28118;52.388;9.452;2022-10-26T02:50:21;7.20;;;6.55;;
42488;SDS011;28118;52.388;9.452;2022-10-26T02:55:39;7.53;;;6.47;;
42488;SDS011;28118;52.388;9.452;2022-10-26T02:58:13;11.25;;;6.85;;
42488;SDS011;28118;52.388;9.452;2022-10-26T03:00:44;6.85;;;5.25;;
42488;SDS011;28118;52.388;9.452;2022-10-26T03:03:12;13.68;;;7.97;;
42488;SDS011;28118;52.388;9.452;2022-10-26T03:05:40;5.50;;;5.00;;
42488;SDS011;28118;52.388;9.452;2022-10-26T03:08:08;8.73;;;5.55;;
42488;SDS011;28118;52.388;9.452;2022-10-26T03:10:38;7.25;;;4.78;;
42488;SDS011;28118;52.388;9.452;2022-10-26T03:13:07;10.63;;;6.40;;
42488;SDS011;28118;52.388;9.452;2022-10-26T03:15:34;22.27;;;7.25;;
42488;SDS011;28118;52.388;9.452;2022-10-26T03:18:01;16.05;;;5.20;;
42488;SDS011;28118;52.388;9.452;2022-10-26T03:20:28;7.57;;;5.97;;
42488;SDS011;28118;52.388;9.452;2022-10-26T03:22:54;6.90;;;6.20;;
42488;SDS011;28118;52.388;9.452;2022-10-26T03:25:22;8.70;;;5.95;;
42488;SDS011;28118;52.388;9.452;2022-10-26T03:27:59;6.50;;;5.43;;
42488;SDS011;28118;52.388;9.452;2022-10-26T03:30:27;7.45;;;6.75;;
42488;SDS011;28118;52.388;9.452;2022-10-26T03:32:55;6.32;;;5.78;;
42488;SDS011;28118;52.388;9.452;2022-10-26T03:35:22;5.40;;;4.90;;
42488;SDS011;28118;52.388;9.452;2022-10-26T03:37:49;8.02;;;6.85;;
42488;SDS011;28118;52.388;9.452;2022-10-26T03:40:16;8.98;;;5.85;;
42488;SDS011;28118;52.388;9.452;2022-10-26T03:42:42;9.10;;;5.80;;
42488;SDS011;28118;52.388;9.452;2022-10-26T03:45:09;7.97;;;7.18;;
42488;SDS011;28118;52.388;9.452;2022-10-26T03:47:43;8.75;;;7.80;;
42488;SDS011;28118;52.388;9.452;2022-10-26T03:50:12;8.10;;;6.75;;
42488;SDS011;28118;52.388;9.452;2022-10-26T03:52:40;9.07;;;6.25;;
42488;SDS011;28118;52.388;9.452;2022-10-26T03:55:07;9.70;;;6.60;;
42488;SDS011;28118;52.388;9.452;2022-10-26T03:57:38;12.55;;;7.75;;
42488;SDS011;28118;52.388;9.452;2022-10-26T04:02:33;7.45;;;5.50;;
42488;SDS011;28118;52.388;9.452;2022-10-26T04:05:00;5.93;;;5.15;;
42488;SDS011;28118;52.388;9.452;2022-10-26T04:07:27;15.63;;;5.50;;
42488;SDS011;28118;52.388;9.452;2022-10-26T04:09:53;12.85;;;6.32;;
42488;SDS011;28118;52.388;9.452;2022-10-26T04:12:20;6.68;;;5.95;;
42488;SDS011;28118;52.388;9.452;2022-10-26T04:14:47;6.65;;;5.68;;
42488;SDS011;28118;52.388;9.452;2022-10-26T04:17:13;9.90;;;6.35;;
42488;SDS011;28118;52.388;9.452;2022-10-26T04:19:40;6.53;;;5.90;;
42488;SDS011;28118;52.388;9.452;2022-10-26T04:22:07;7.28;;;6.55;;
42488;SDS011;28118;52.388;9.452;2022-10-26T04:24:33;6.28;;;5.70;;
42488;SDS011;28118;52.388;9.452;2022-10-26T04:27:00;8.02;;;5.18;;
42488;SDS011;28118;52.388;9.452;2022-10-26T04:29:27;7.18;;;6.38;;
42488;SDS011;28118;52.388;9.452;2022-10-26T04:31:53;8.75;;;6.07;;
42488;SDS011;28118;52.388;9.452;2022-10-26T04:34:20;7.50;;;6.20;;
42488;SDS011;28118;52.388;9.452;2022-10-26T04:36:46;9.50;;;6.22;;
42488;SDS011;28118;52.388;9.452;2022-10-26T04:39:13;14.50;;;7.38;;
42488;SDS011;28118;52.388;9.452;2022-10-26T04:41:40;6.57;;;5.22;;
42488;SDS011;28118;52.388;9.452;2022-10-26T04:44:07;9.60;;;5.78;;
42488;SDS011;28118;52.388;9.452;2022-10-26T04:46:33;6.60;;;6.05;;
42488;SDS011;28118;52.388;9.452;2022-10-26T04:49:00;6.30;;;5.57;;
42488;SDS011;28118;52.388;9.452;2022-10-26T04:51:26;7.43;;;5.75;;
42488;SDS011;28118;52.388;9.452;2022-10-26T04:53:53;7.50;;;5.60;;
42488;SDS011;28118;52.388;9.452;2022-10-26T04:56:20;6.63;;;5.15;;
42488;SDS011;28118;52.388;9.452;2022-10-26T04:58:47;9.95;;;5.57;;
42488;SDS011;28118;52.388;9.452;2022-10-26T05:01:14;6.05;;;5.45;;
42488;SDS011;28118;52.388;9.452;2022-10-26T05:03:41;7.07;;;6.15;;
42488;SDS011;28118;52.388;9.452;2022-10-26T05:06:10;5.47;;;4.97;;
42488;SDS011;28118;52.388;9.452;2022-10-26T05:08:37;15.27;;;6.78;;
42488;SDS011;28118;52.388;9.452;2022-10-26T05:11:04;10.15;;;7.22;;
42488;SDS011;28118;52.388;9.452;2022-10-26T05:13:30;6.18;;;5.57;;
42488;SDS011;28118;52.388;9.452;2022-10-26T05:15:57;7.63;;;6.93;;
42488;SDS011;28118;52.388;9.452;2022-10-26T05:18:24;9.70;;;6.13;;
42488;SDS011;28118;52.388;9.452;2022-10-26T05:20:52;7.03;;;6.10;;
42488;SDS011;28118;52.388;9.452;2022-10-26T05:23:19;5.57;;;5.07;;
42488;SDS011;28118;52.388;9.452;2022-10-26T05:25:49;8.95;;;6.97;;
42488;SDS011;28118;52.388;9.452;2022-10-26T05:28:16;7.90;;;5.65;;
42488;SDS011;28118;52.388;9.452;2022-10-26T05:30:44;7.10;;;5.78;;
42488;SDS011;28118;52.388;9.452;2022-10-26T05:33:12;4.85;;;4.40;;
42488;SDS011;28118;52.388;9.452;2022-10-26T05:35:39;7.72;;;6.10;;
42488;SDS011;28118;52.388;9.452;2022-10-26T05:38:11;9.00;;;6.10;;
42488;SDS011;28118;52.388;9.452;2022-10-26T05:40:49;6.47;;;5.88;;
42488;SDS011;28118;52.388;9.452;2022-10-26T05:43:17;7.03;;;6.32;;
42488;SDS011;28118;52.388;9.452;2022-10-26T05:45:45;7.53;;;5.55;;
42488;SDS011;28118;52.388;9.452;2022-10-26T05:48:12;7.05;;;6.45;;
42488;SDS011;28118;52.388;9.452;2022-10-26T05:50:38;7.07;;;6.35;;
42488;SDS011;28118;52.388;9.452;2022-10-26T05:53:05;7.82;;;7.13;;
42488;SDS011;28118;52.388;9.452;2022-10-26T05:55:32;9.48;;;6.57;;
42488;SDS011;28118;52.388;9.452;2022-10-26T05:57:59;7.13;;;5.55;;
42488;SDS011;28118;52.388;9.452;2022-10-26T06:00:26;8.60;;;7.38;;
42488;SDS011;28118;52.388;9.452;2022-10-26T06:05:56;9.75;;;7.15;;
42488;SDS011;28118;52.388;9.452;2022-10-26T06:08:28;15.73;;;7.13;;
42488;SDS011;28118;52.388;9.452;2022-10-26T06:10:55;8.63;;;6.75;;
42488;SDS011;28118;52.388;9.452;2022-10-26T06:13:27;8.93;;;6.78;;
42488;SDS011;28118;52.388;9.452;2022-10-26T06:15:59;10.18;;;6.30;;
42488;SDS011;28118;52.388;9.452;2022-10-26T06:19:04;6.15;;;5.55;;
42488;SDS011;28118;52.388;9.452;2022-10-26T06:21:45;8.43;;;7.05;;
42488;SDS011;28118;52.388;9.452;2022-10-26T06:24:23;10.68;;;7.50;;
42488;SDS011;28118;52.388;9.452;2022-10-26T06:27:08;6.75;;;6.03;;
42488;SDS011;28118;52.388;9.452;2022-10-26T06:29:44;7.25;;;6.65;;
42488;SDS011;28118;52.388;9.452;2022-10-26T06:32:26;9.93;;;8.20;;
42488;SDS011;28118;52.388;9.452;2022-10-26T06:35:01;7.07;;;6.43;;
42488;SDS011;28118;52.388;9.452;2022-10-26T06:37:36;6.75;;;5.93;;
42488;SDS011;28118;52.388;9.452;2022-10-26T06:40:05;7.70;;;6.50;;
42488;SDS011;28118;52.388;9.452;2022-10-26T06:42:35;6.75;;;5.95;;
42488;SDS011;28118;52.388;9.452;2022-10-26T06:45:01;9.10;;;6.05;;
42488;SDS011;28118;52.388;9.452;2022-10-26T06:52:42;16.48;;;7.28;;
42488;SDS011;28118;52.388;9.452;2022-10-26T06:55:14;7.97;;;6.60;;
42488;SDS011;28118;52.388;9.452;2022-10-26T06:57:42;8.00;;;7.05;;
42488;SDS011;28118;52.388;9.452;2022-10-26T07:00:13;7.50;;;5.38;;
42488;SDS011;28118;52.388;9.452;2022-10-26T07:02:46;10.27;;;6.07;;
42488;SDS011;28118;52.388;9.452;2022-10-26T07:05:15;7.57;;;5.38;;
42488;SDS011;28118;52.388;9.452;2022-10-26T07:07:42;9.20;;;7.20;;
42488;SDS011;28118;52.388;9.452;2022-10-26T07:10:11;5.93;;;5.32;;
42488;SDS011;28118;52.388;9.452;2022-10-26T07:12:38;6.50;;;5.45;;
42488;SDS011;28118;52.388;9.452;2022-10-26T07:15:05;7.32;;;5.70;;
42488;SDS011;28118;52.388;9.452;2022-10-26T07:17:43;7.55;;;6.05;;
42488;SDS011;28118;52.388;9.452;2022-10-26T07:20:11;8.20;;;6.75;;
42488;SDS011;28118;52.388;9.452;2022-10-26T07:22:38;7.35;;;5.85;;
42488;SDS011;28118;52.388;9.452;2022-10-26T07:25:05;8.10;;;7.38;;
42488;SDS011;28118;52.388;9.452;2022-10-26T07:27:33;7.43;;;6.38;;
42488;SDS011;28118;52.388;9.452;2022-10-26T07:29:59;6.38;;;5.75;;
42488;SDS011;28118;52.388;9.452;2022-10-26T07:32:27;5.53;;;5.00;;
42488;SDS011;28118;52.388;9.452;2022-10-26T07:34:53;7.70;;;6.35;;
42488;SDS011;28118;52.388;9.452;2022-10-26T07:37:20;6.13;;;5.57;;
42488;SDS011;28118;52.388;9.452;2022-10-26T07:39:47;6.68;;;5.97;;
42488;SDS011;28118;52.388;9.452;2022-10-26T07:42:13;8.38;;;5.70;;
42488;SDS011;28118;52.388;9.452;2022-10-26T07:44:40;12.05;;;5.03;;
42488;SDS011;28118;52.388;9.452;2022-10-26T07:47:07;8.68;;;5.35;;
42488;SDS011;28118;52.388;9.452;2022-10-26T07:49:33;8.32;;;5.18;;
42488;SDS011;28118;52.388;9.452;2022-10-26T07:52:00;6.78;;;6.05;;
42488;SDS011;28118;52.388;9.452;2022-10-26T07:54:30;3.40;;;3.03;;
42488;SDS011;28118;52.388;9.452;2022-10-26T07:56:57;4.53;;;3.95;;
42488;SDS011;28118;52.388;9.452;2022-10-26T07:59:24;6.32;;;4.90;;
42488;SDS011;28118;52.388;9.452;2022-10-26T08:01:51;5.20;;;4.72;;
42488;SDS011;28118;52.388;9.452;2022-10-26T08:04:17;4.25;;;3.40;;
42488;SDS011;28118;52.388;9.452;2022-10-26T08:06:44;7.28;;;5.40;;
42488;SDS011;28118;52.388;9.452;2022-10-26T08:09:12;6.22;;;3.85;;
42488;SDS011;28118;52.388;9.452;2022-10-26T08:11:40;5.30;;;4.80;;
42488;SDS011;28118;52.388;9.452;2022-10-26T08:14:09;7.25;;;4.88;;
42488;SDS011;28118;52.388;9.452;2022-10-26T08:16:36;6.93;;;5.80;;
42488;SDS011;28118;52.388;9.452;2022-10-26T08:19:05;9.57;;;5.30;;
42488;SDS011;28118;52.388;9.452;2022-10-26T08:21:32;5.57;;;4.20;;
42488;SDS011;28118;52.388;9.452;2022-10-26T08:24:05;8.60;;;7.05;;
42488;SDS011;28118;52.388;9.452;2022-10-26T08:26:32;11.23;;;4.88;;
42488;SDS011;28118;52.388;9.452;2022-10-26T08:28:59;5.40;;;4.43;;
42488;SDS011;28118;52.388;9.452;2022-10-26T08:31:26;8.27;;;5.38;;
42488;SDS011;28118;52.388;9.452;2022-10-26T08:33:53;8.57;;;4.53;;
42488;SDS011;28118;52.388;9.452;2022-10-26T08:36:22;5.68;;;5.07;;
42488;SDS011;28118;52.388;9.452;2022-10-26T08:38:49;5.57;;;5.00;;
42488;SDS011;28118;52.388;9.452;2022-10-26T08:41:19;10.20;;;5.43;;
42488;SDS011;28118;52.388;9.452;2022-10-26T08:47:04;16.30;;;5.60;;
42488;SDS011;28118;52.388;9.452;2022-10-26T08:49:40;10.05;;;5.65;;
42488;SDS011;28118;52.388;9.452;2022-10-26T08:52:10;4.95;;;4.55;;
42488;SDS011;28118;52.388;9.452;2022-10-26T08:54:46;5.05;;;4.57;;
42488;SDS011;28118;52.388;9.452;2022-10-26T08:57:21;3.78;;;3.38;;
42488;SDS011;28118;52.388;9.452;2022-10-26T09:00:03;7.88;;;7.28;;
42488;SDS011;28118;52.388;9.452;2022-10-26T09:02:30;5.10;;;4.43;;
42488;SDS011;28118;52.388;9.452;2022-10-26T09:04:57;5.53;;;4.95;;
42488;SDS011;28118;52.388;9.452;2022-10-26T09:10:16;9.00;;;5.70;;
42488;SDS011;28118;52.388;9.452;2022-10-26T09:15:43;14.65;;;4.20;;
42488;SDS011;28118;52.388;9.452;2022-10-26T09:21:00;10.55;;;4.80;;
42488;SDS011;28118;52.388;9.452;2022-10-26T09:23:51;4.53;;;2.95;;
42488;SDS011;28118;52.388;9.452;2022-10-26T09:29:02;5.70;;;3.40;;
42488;SDS011;28118;52.388;9.452;2022-10-26T09:31:32;7.60;;;3.90;;
42488;SDS011;28118;52.388;9.452;2022-10-26T09:34:13;3.65;;;3.35;;
42488;SDS011;28118;52.388;9.452;2022-10-26T09:37:04;15.35;;;3.33;;
42488;SDS011;28118;52.388;9.452;2022-10-26T09:47:44;6.43;;;4.05;;
42488;SDS011;28118;52.388;9.452;2022-10-26T09:50:34;5.57;;;3.38;;
42488;SDS011;28118;52.388;9.452;2022-10-26T09:53:03;3.60;;;2.72;;
42488;SDS011;28118;52.388;9.452;2022-10-26T09:55:30;5.03;;;2.42;;
42488;SDS011;28118;52.388;9.452;2022-10-26T09:58:00;4.35;;;3.03;;
42488;SDS011;28118;52.388;9.452;2022-10-26T10:00:31;7.25;;;3.35;;
42488;SDS011;28118;52.388;9.452;2022-10-26T10:03:00;9.52;;;2.85;;
42488;SDS011;28118;52.388;9.452;2022-10-26T10:05:28;5.93;;;3.35;;
42488;SDS011;28118;52.388;9.452;2022-10-26T10:11:06;8.38;;;2.72;;
42488;SDS011;28118;52.388;9.452;2022-10-26T10:13:35;3.90;;;3.58;;
42488;SDS011;28118;52.388;9.452;2022-10-26T10:18:33;4.07;;;2.30;;
42488;SDS011;28118;52.388;9.452;2022-10-26T10:21:01;7.93;;;3.50;;
42488;SDS011;28118;52.388;9.452;2022-10-26T10:23:34;4.60;;;4.18;;
42488;SDS011;28118;52.388;9.452;2022-10-26T10:26:11;3.65;;;3.35;;
42488;SDS011;28118;52.388;9.452;2022-10-26T10:28:41;2.63;;;2.13;;
42488;SDS011;28118;52.388;9.452;2022-10-26T10:31:21;8.18;;;3.75;;
42488;SDS011;28118;52.388;9.452;2022-10-26T10:33:52;5.30;;;2.85;;
42488;SDS011;28118;52.388;9.452;2022-10-26T10:36:19;4.68;;;2.88;;
42488;SDS011;28118;52.388;9.452;2022-10-26T10:38:49;3.85;;;3.00;;
42488;SDS011;28118;52.388;9.452;2022-10-26T10:41:30;9.40;;;3.78;;
42488;SDS011;28118;52.388;9.452;2022-10-26T10:47:00;8.55;;;3.20;;
42488;SDS011;28118;52.388;9.452;2022-10-26T10:49:26;6.70;;;2.85;;
42488;SDS011;28118;52.388;9.452;2022-10-26T10:51:55;4.28;;;2.58;;
42488;SDS011;28118;52.388;9.452;2022-10-26T10:54:30;4.13;;;2.70;;
42488;SDS011;28118;52.388;9.452;2022-10-26T10:59:39;9.00;;;2.97;;
42488;SDS011;28118;52.388;9.452;2022-10-26T11:06:05;3.80;;;2.47;;
42488;SDS011;28118;52.388;9.452;2022-10-26T11:08:02;11.15;;;2.60;;
42488;SDS011;28118;52.388;9.452;2022-10-26T11:10:35;2.72;;;2.35;;
42488;SDS011;28118;52.388;9.452;2022-10-26T11:13:40;3.63;;;2.63;;
42488;SDS011;28118;52.388;9.452;2022-10-26T11:16:04;3.33;;;2.33;;
42488;SDS011;28118;52.388;9.452;2022-10-26T11:18:40;10.00;;;4.43;;
42488;SDS011;28118;52.388;9.452;2022-10-26T11:21:24;3.00;;;2.33;;
42488;SDS011;28118;52.388;9.452;2022-10-26T11:23:53;15.13;;;3.38;;
42488;SDS011;28118;52.388;9.452;2022-10-26T11:29:41;14.73;;;3.25;;
42488;SDS011;28118;52.388;9.452;2022-10-26T11:32:15;4.78;;;1.75;;
42488;SDS011;28118;52.388;9.452;2022-10-26T11:37:37;3.95;;;2.47;;
42488;SDS011;28118;52.388;9.452;2022-10-26T11:45:33;3.53;;;1.92;;
42488;SDS011;28118;52.388;9.452;2022-10-26T11:48:21;2.85;;;2.15;;
42488;SDS011;28118;52.388;9.452;2022-10-26T11:51:00;3.10;;;2.38;;
42488;SDS011;28118;52.388;9.452;2022-10-26T11:53:29;3.95;;;2.65;;
42488;SDS011;28118;52.388;9.452;2022-10-26T11:58:29;4.47;;;2.38;;
42488;SDS011;28118;52.388;9.452;2022-10-26T12:01:01;3.03;;;1.77;;
42488;SDS011;28118;52.388;9.452;2022-10-26T12:03:34;2.25;;;1.67;;
42488;SDS011;28118;52.388;9.452;2022-10-26T12:08:35;4.57;;;1.63;;
42488;SDS011;28118;52.388;9.452;2022-10-26T12:11:12;2.97;;;1.75;;
42488;SDS011;28118;52.388;9.452;2022-10-26T12:14:24;2.70;;;1.75;;
42488;SDS011;28118;52.388;9.452;2022-10-26T12:19:41;2.33;;;1.73;;
42488;SDS011;28118;52.388;9.452;2022-10-26T12:22:28;9.88;;;2.40;;
42488;SDS011;28118;52.388;9.452;2022-10-26T12:43:32;5.45;;;2.70;;
42488;SDS011;28118;52.388;9.452;2022-10-26T12:56:56;9.00;;;3.50;;
42488;SDS011;28118;52.388;9.452;2022-10-26T12:59:44;4.00;;;1.77;;
42488;SDS011;28118;52.388;9.452;2022-10-26T13:02:38;2.13;;;1.38;;
42488;SDS011;28118;52.388;9.452;2022-10-26T13:08:08;6.78;;;2.58;;
42488;SDS011;28118;52.388;9.452;2022-10-26T13:10:36;2.83;;;2.17;;
42488;SDS011;28118;52.388;9.452;2022-10-26T13:13:05;6.18;;;3.10;;
42488;SDS011;28118;52.388;9.452;2022-10-26T13:15:38;3.90;;;1.75;;
42488;SDS011;28118;52.388;9.452;2022-10-26T13:18:07;3.20;;;2.63;;
42488;SDS011;28118;52.388;9.452;2022-10-26T13:23:29;3.38;;;2.35;;
42488;SDS011;28118;52.388;9.452;2022-10-26T13:31:09;2.30;;;2.05;;
42488;SDS011;28118;52.388;9.452;2022-10-26T13:33:37;2.63;;;1.88;;
42488;SDS011;28118;52.388;9.452;2022-10-26T13:36:18;4.30;;;1.92;;
42488;SDS011;28118;52.388;9.452;2022-10-26T13:39:00;2.87;;;2.07;;
42488;SDS011;28118;52.388;9.452;2022-10-26T13:41:49;3.72;;;2.03;;
42488;SDS011;28118;52.388;9.452;2022-10-26T13:44:25;2.25;;;2.00;;
42488;SDS011;28118;52.388;9.452;2022-10-26T13:46:57;2.08;;;1.30;;
42488;SDS011;28118;52.388;9.452;2022-10-26T13:49:29;5.53;;;2.33;;
42488;SDS011;28118;52.388;9.452;2022-10-26T13:52:00;9.68;;;2.30;;
42488;SDS011;28118;52.388;9.452;2022-10-26T13:54:36;2.80;;;1.92;;
42488;SDS011;28118;52.388;9.452;2022-10-26T13:57:17;2.63;;;1.92;;
42488;SDS011;28118;52.388;9.452;2022-10-26T13:59:47;3.30;;;2.10;;
42488;SDS011;28118;52.388;9.452;2022-10-26T14:02:18;4.80;;;1.80;;
42488;SDS011;28118;52.388;9.452;2022-10-26T14:04:53;2.75;;;1.92;;
42488;SDS011;28118;52.388;9.452;2022-10-26T14:07:38;9.95;;;2.88;;
42488;SDS011;28118;52.388;9.452;2022-10-26T14:12:57;3.03;;;2.40;;
42488;SDS011;28118;52.388;9.452;2022-10-26T14:15:26;6.32;;;3.08;;
42488;SDS011;28118;52.388;9.452;2022-10-26T14:17:56;4.05;;;2.35;;
42488;SDS011;28118;52.388;9.452;2022-10-26T14:20:25;8.77;;;2.28;;
42488;SDS011;28118;52.388;9.452;2022-10-26T14:22:53;8.32;;;2.63;;
42488;SDS011;28118;52.388;9.452;2022-10-26T14:25:24;2.90;;;2.08;;
42488;SDS011;28118;52.388;9.452;2022-10-26T14:28:20;3.72;;;2.22;;
42488;SDS011;28118;52.388;9.452;2022-10-26T14:30:47;9.25;;;3.03;;
42488;SDS011;28118;52.388;9.452;2022-10-26T14:33:17;9.85;;;2.88;;
42488;SDS011;28118;52.388;9.452;2022-10-26T14:35:51;23.05;;;15.52;;
42488;SDS011;28118;52.388;9.452;2022-10-26T14:38:21;6.80;;;4.45;;
42488;SDS011;28118;52.388;9.452;2022-10-26T14:40:55;2.15;;;1.48;;
42488;SDS011;28118;52.388;9.452;2022-10-26T14:43:23;4.75;;;3.13;;
42488;SDS011;28118;52.388;9.452;2022-10-26T14:45:51;3.55;;;2.28;;
42488;SDS011;28118;52.388;9.452;2022-10-26T14:51:00;3.53;;;1.73;;
42488;SDS011;28118;52.388;9.452;2022-10-26T14:53:35;5.30;;;2.38;;
42488;SDS011;28118;52.388;9.452;2022-10-26T14:56:04;3.03;;;2.67;;
42488;SDS011;28118;52.388;9.452;2022-10-26T14:58:42;5.50;;;2.35;;
42488;SDS011;28118;52.388;9.452;2022-10-26T15:01:13;2.22;;;1.60;;
42488;SDS011;28118;52.388;9.452;2022-10-26T15:04:04;7.63;;;2.78;;
42488;SDS011;28118;52.388;9.452;2022-10-26T15:09:02;3.25;;;2.33;;
42488;SDS011;28118;52.388;9.452;2022-10-26T15:11:32;2.47;;;2.28;;
42488;SDS011;28118;52.388;9.452;2022-10-26T15:14:00;3.35;;;2.55;;
42488;SDS011;28118;52.388;9.452;2022-10-26T15:16:29;4.30;;;2.38;;
42488;SDS011;28118;52.388;9.452;2022-10-26T15:19:06;4.05;;;3.22;;
42488;SDS011;28118;52.388;9.452;2022-10-26T15:21:36;3.70;;;2.53;;
42488;SDS011;28118;52.388;9.452;2022-10-26T15:24:12;7.47;;;3.33;;
42488;SDS011;28118;52.388;9.452;2022-10-26T15:27:13;5.40;;;3.13;;
42488;SDS011;28118;52.388;9.452;2022-10-26T15:29:42;5.90;;;3.80;;
42488;SDS011;28118;52.388;9.452;2022-10-26T15:32:35;22.52;;;4.93;;
42488;SDS011;28118;52.388;9.452;2022-10-26T15:35:06;27.02;;;8.32;;
42488;SDS011;28118;52.388;9.452;2022-10-26T15:37:51;9.35;;;7.47;;
42488;SDS011;28118;52.388;9.452;2022-10-26T15:40:20;12.25;;;6.75;;
42488;SDS011;28118;52.388;9.452;2022-10-26T15:42:53;11.43;;;6.03;;
42488;SDS011;28118;52.388;9.452;2022-10-26T15:47:47;8.38;;;4.15;;
42488;SDS011;28118;52.388;9.452;2022-10-26T15:50:17;16.00;;;5.25;;
42488;SDS011;28118;52.388;9.452;2022-10-26T15:52:46;9.10;;;5.88;;
42488;SDS011;28118;52.388;9.452;2022-10-26T15:55:15;7.82;;;5.22;;
42488;SDS011;28118;52.388;9.452;2022-10-26T15:57:42;10.23;;;4.55;;
42488;SDS011;28118;52.388;9.452;2022-10-26T16:00:13;6.47;;;3.65;;
42488;SDS011;28118;52.388;9.452;2022-10-26T16:02:41;5.80;;;3.45;;
42488;SDS011;28118;52.388;9.452;2022-10-26T16:05:13;4.35;;;2.45;;
42488;SDS011;28118;52.388;9.452;2022-10-26T16:07:41;4.85;;;3.05;;
42488;SDS011;28118;52.388;9.452;2022-10-26T16:10:15;7.63;;;2.45;;
42488;SDS011;28118;52.388;9.452;2022-10-26T16:12:47;3.78;;;3.35;;
42488;SDS011;28118;52.388;9.452;2022-10-26T16:15:16;3.42;;;3.13;;
42488;SDS011;28118;52.388;9.452;2022-10-26T16:17:44;5.10;;;3.10;;
42488;SDS011;28118;52.388;9.452;2022-10-26T16:20:12;5.93;;;2.95;;
42488;SDS011;28118;52.388;9.452;2022-10-26T16:22:41;10.68;;;4.90;;
42488;SDS011;28118;52.388;9.452;2022-10-26T16:25:13;9.27;;;6.35;;
42488;SDS011;28118;52.388;9.452;2022-10-26T16:27:42;7.90;;;5.60;;
42488;SDS011;28118;52.388;9.452;2022-10-26T16:30:10;9.13;;;6.50;;
42488;SDS011;28118;52.388;9.452;2022-10-26T16:32:38;9.20;;;7.45;;
42488;SDS011;28118;52.388;9.452;2022-10-26T16:35:05;9.82;;;7.07;;
42488;SDS011;28118;52.388;9.452;2022-10-26T16:37:32;5.28;;;4.55;;
42488;SDS011;28118;52.388;9.452;2022-10-26T16:39:59;19.65;;;5.68;;
42488;SDS011;28118;52.388;9.452;2022-10-26T16:42:26;5.20;;;4.45;;
42488;SDS011;28118;52.388;9.452;2022-10-26T16:44:53;7.97;;;4.88;;
42488;SDS011;28118;52.388;9.452;2022-10-26T16:47:25;8.40;;;4.55;;
42488;SDS011;28118;52.388;9.452;2022-10-26T16:49:52;7.80;;;4.78;;
42488;SDS011;28118;52.388;9.452;2022-10-26T16:52:19;6.78;;;4.18;;
42488;SDS011;28118;52.388;9.452;2022-10-26T16:54:45;5.10;;;3.70;;
42488;SDS011;28118;52.388;9.452;2022-10-26T16:57:12;8.27;;;3.67;;
42488;SDS011;28118;52.388;9.452;2022-10-26T16:59:38;4.45;;;4.03;;
42488;SDS011;28118;52.388;9.452;2022-10-26T17:02:05;14.80;;;5.57;;
42488;SDS011;28118;52.388;9.452;2022-10-26T17:04:32;6.15;;;4.63;;
42488;SDS011;28118;52.388;9.452;2022-10-26T17:06:58;7.18;;;4.72;;
42488;SDS011;28118;52.388;9.452;2022-10-26T17:09:25;6.03;;;5.43;;
42488;SDS011;28118;52.388;9.452;2022-10-26T17:11:52;5.88;;;4.95;;
42488;SDS011;28118;52.388;9.452;2022-10-26T17:14:26;7.18;;;4.00;;
42488;SDS011;28118;52.388;9.452;2022-10-26T17:16:53;10.27;;;4.68;;
42488;SDS011;28118;52.388;9.452;2022-10-26T17:19:20;12.40;;;5.20;;
42488;SDS011;28118;52.388;9.452;2022-10-26T17:21:46;10.13;;;5.68;;
42488;SDS011;28118;52.388;9.452;2022-10-26T17:24:13;4.28;;;3.65;;
42488;SDS011;28118;52.388;9.452;2022-10-26T17:26:40;7.93;;;6.80;;
42488;SDS011;28118;52.388;9.452;2022-10-26T17:29:07;10.20;;;6.18;;
42488;SDS011;28118;52.388;9.452;2022-10-26T17:31:39;10.50;;;6.93;;
42488;SDS011;28118;52.388;9.452;2022-10-26T17:34:06;7.38;;;6.68;;